Arcadia, Wisconsin
Current Conditions -  °F | °C
As of 4:15 PM on Tuesday 21 Oct 2014 (Local Time) from KONA Reporting Station
Clear Clear  
Wind Chill: 55°   Ceiling: Unl
Heat Index: 55°   Visibility: 10mi
Dew Point: 41°   Wind: 8mph
Humidity: 58%   Direction: 130°SE
Pressure: 30.19"   Gusts: NA
Location:  44.25°N, 91.5°W
Report Text: KONA 212115Z AUTO 13007KT 10SM CLR 13/05 A3019 RMK AO2
Loading
Personal Weather Stations






























Interactive Weather Map
Tropical Storm Tracking
New forecast layout! Learn more

10-Day Weather Forecast

Advertisements
Track Severe Weather on mobile